Time;durP1;ratioP1;P1;durP2;ratioP2;P2;SDS_P1;SDS_P2;PMS_P1;PMS_P2;Temp;Humidity;BMP_temperature;BMP_pressure;BME280_temperature;BME280_humidity;BME280_pressure;Samples;Min_cycle;Max_cycle;Signal;HPM_P1;HPM_P2
2021/06/19 00:00:33;;;;;;;11.13;10.10;;;;;;;22.59;57.93;100607.22;3558708;40;20061;-58
2021/06/19 00:03:01;;;;;;;11.82;10.63;;;;;;;22.56;58.18;100607.31;3558308;40;20089;-55
2021/06/19 00:05:28;;;;;;;11.15;9.98;;;;;;;22.53;57.90;100599.56;3556798;40;20046;-56
2021/06/19 00:07:56;;;;;;;12.10;10.85;;;;;;;22.57;58.29;100602.94;3557160;40;20150;-56
2021/06/19 00:10:35;;;;;;;11.05;10.07;;;;;;;22.56;57.79;100596.88;3558743;40;20102;-52
2021/06/19 00:13:02;;;;;;;11.82;10.63;;;;;;;22.50;58.27;100597.00;3557922;40;20060;-56
2021/06/19 00:15:33;;;;;;;11.02;9.93;;;;;;;22.49;58.49;100597.91;3557104;40;20058;-55
2021/06/19 00:18:01;;;;;;;12.35;10.43;;;;;;;22.44;58.97;100591.09;3557316;40;20054;-52
2021/06/19 00:20:29;;;;;;;11.85;10.82;;;;;;;22.48;58.99;100590.13;3558564;40;20507;-56
2021/06/19 00:22:56;;;;;;;11.55;10.35;;;;;;;22.41;59.06;100593.78;3558353;40;20062;-55
2021/06/19 00:25:25;;;;;;;11.75;10.55;;;;;;;22.46;58.70;100591.91;3556769;40;20068;-57
2021/06/19 00:27:52;;;;;;;13.40;10.85;;;;;;;22.38;59.80;100592.13;3557135;40;20432;-57
2021/06/19 00:30:20;;;;;;;14.63;11.32;;;;;;;22.27;59.66;100587.13;3550230;40;20086;-53
2021/06/19 00:32:49;;;;;;;11.23;10.10;;;;;;;22.30;60.17;100584.47;3550416;40;20155;-56
2021/06/19 00:35:16;;;;;;;11.63;10.48;;;;;;;22.19;60.48;100591.69;3548637;40;20054;-54
2021/06/19 00:37:44;;;;;;;12.77;10.80;;;;;;;22.13;60.49;100588.38;3548569;40;20399;-57
2021/06/19 00:40:12;;;;;;;13.52;11.05;;;;;;;22.11;61.56;100588.38;3549818;40;20090;-55
2021/06/19 00:42:41;;;;;;;12.57;11.35;;;;;;;22.02;61.42;100581.63;3550288;40;20050;-54
2021/06/19 00:45:08;;;;;;;12.48;11.25;;;;;;;21.96;62.03;100579.16;3548879;40;20038;-52
2021/06/19 00:47:41;;;;;;;12.25;10.73;;;;;;;22.03;62.71;100580.72;3548593;40;20117;-56
2021/06/19 00:50:09;;;;;;;12.05;11.00;;;;;;;21.97;62.08;100580.88;3549890;40;20352;-53
2021/06/19 00:52:35;;;;;;;12.00;10.80;;;;;;;21.86;62.46;100580.25;3550239;40;20060;-55
2021/06/19 00:55:05;;;;;;;14.23;12.25;;;;;;;22.13;62.35;100581.41;3549454;40;20106;-55
2021/06/19 00:57:33;;;;;;;13.60;11.65;;;;;;;21.86;63.74;100580.25;3548277;40;20042;-54
2021/06/19 01:00:01;;;;;;;11.98;10.80;;;;;;;21.78;63.17;100572.63;3549014;40;20082;-55
2021/06/19 01:02:29;;;;;;;12.35;11.20;;;;;;;21.72;62.66;100571.88;3550212;40;20104;-58
2021/06/19 01:04:56;;;;;;;12.65;11.43;;;;;;;21.76;62.47;100570.91;3549846;40;20098;-56
2021/06/19 01:07:23;;;;;;;13.90;11.60;;;;;;;21.69;63.56;100578.03;3548410;40;20070;-55
2021/06/19 01:09:50;;;;;;;12.43;11.13;;;;;;;21.68;62.50;100576.31;3548506;40;20118;-53
2021/06/19 01:12:24;;;;;;;12.55;11.38;;;;;;;21.68;63.64;100578.94;3544305;40;20046;-55
2021/06/19 01:14:53;;;;;;;13.27;11.88;;;;;;;21.62;64.43;100571.22;3554168;40;20061;-55
2021/06/19 01:17:21;;;;;;;12.07;10.98;;;;;;;21.61;64.21;100578.19;3554009;40;20599;-53
2021/06/19 01:20:09;;;;;;;11.68;10.65;;;;;;;21.59;64.48;100579.13;3548364;40;20090;-56
2021/06/19 01:22:38;;;;;;;11.48;10.48;;;;;;;21.64;63.72;100571.22;3549142;40;20639;-56
2021/06/19 01:25:08;;;;;;;13.75;11.55;;;;;;;21.63;64.64;100572.06;3549298;40;20042;-58
2021/06/19 01:27:37;;;;;;;15.73;12.20;;;;;;;21.52;65.33;100564.50;3549124;40;20090;-52
2021/06/19 01:30:08;;;;;;;17.40;12.45;;;;;;;21.45;65.29;100566.41;3549277;40;20098;-55
2021/06/19 01:32:38;;;;;;;13.43;11.57;;;;;;;21.46;65.28;100560.28;3548948;40;20081;-56
2021/06/19 01:35:07;;;;;;;13.35;11.60;;;;;;;21.64;64.97;100566.00;3554040;40;20042;-56
2021/06/19 01:37:37;;;;;;;13.32;11.77;;;;;;;21.71;64.78;100568.41;3554544;40;20056;-57
2021/06/19 01:40:21;;;;;;;16.80;11.68;;;;;;;21.36;66.71;100563.97;3553549;40;20108;-57
2021/06/19 01:42:50;;;;;;;21.40;12.35;;;;;;;21.34;66.11;100560.53;3552158;40;20529;-57
2021/06/19 01:45:23;;;;;;;14.23;11.68;;;;;;;21.44;66.49;100564.66;3549392;40;20102;-57
2021/06/19 01:47:51;;;;;;;12.85;11.63;;;;;;;21.41;65.96;100564.75;3544171;40;20067;-56
2021/06/19 01:50:21;;;;;;;13.15;11.75;;;;;;;21.19;66.09;100560.81;3548259;40;20105;-53
2021/06/19 01:52:49;;;;;;;11.98;10.77;;;;;;;21.27;66.28;100559.78;3548099;40;20103;-57
2021/06/19 01:55:17;;;;;;;12.23;11.05;;;;;;;21.17;66.52;100559.97;3543799;40;20059;-59
2021/06/19 01:57:49;;;;;;;14.82;12.27;;;;;;;21.04;66.56;100554.19;3543868;40;20456;-55
2021/06/19 02:00:18;;;;;;;13.15;11.85;;;;;;;21.02;66.67;100554.19;3544060;40;20062;-57
2021/06/19 02:02:46;;;;;;;12.52;11.43;;;;;;;21.06;66.53;100561.06;3543979;40;20091;-57
2021/06/19 02:05:15;;;;;;;13.70;12.50;;;;;;;21.01;67.14;100562.03;3546530;40;20062;-57
2021/06/19 02:08:02;;;;;;;12.73;11.63;;;;;;;21.01;67.54;100559.44;3543747;40;20134;-54
2021/06/19 02:10:36;;;;;;;13.75;12.40;;;;;;;20.97;67.82;100557.78;3553483;40;20077;-56
2021/06/19 02:13:05;;;;;;;14.40;12.88;;;;;;;20.90;67.37;100551.00;3553544;40;20045;-55
2021/06/19 02:15:34;;;;;;;12.23;11.13;;;;;;;20.85;68.09;100554.53;3553542;40;20335;-57
2021/06/19 02:18:02;;;;;;;12.88;11.68;;;;;;;20.85;67.98;100549.31;3552911;40;20058;-56
2021/06/19 02:20:29;;;;;;;14.40;12.50;;;;;;;20.85;67.96;100549.31;3553328;40;20452;-57
2021/06/19 02:22:57;;;;;;;12.80;11.60;;;;;;;20.80;68.07;100542.50;3549402;40;20343;-55
2021/06/19 02:25:28;;;;;;;13.90;12.60;;;;;;;20.72;68.51;100540.03;3551840;40;20050;-56
2021/06/19 02:27:57;;;;;;;13.77;12.38;;;;;;;20.82;68.49;100536.34;3553487;40;20086;-54
2021/06/19 02:30:30;;;;;;;14.60;11.82;;;;;;;20.74;68.72;100540.84;3553590;40;20470;-59
2021/06/19 02:32:58;;;;;;;14.40;12.90;;;;;;;20.68;69.20;100540.97;3558109;40;20053;-56
2021/06/19 02:35:28;;;;;;;15.90;12.43;;;;;;;20.60;69.72;100541.09;3556742;40;20082;-55
2021/06/19 02:37:56;;;;;;;15.75;12.77;;;;;;;20.59;69.50;100541.13;3558266;40;20089;-58
2021/06/19 02:40:24;;;;;;;15.35;12.48;;;;;;;20.51;70.22;100543.84;3557217;40;20109;-55
2021/06/19 02:42:52;;;;;;;14.10;12.60;;;;;;;20.53;70.34;100538.66;3556627;40;20357;-57
2021/06/19 02:45:19;;;;;;;16.15;12.68;;;;;;;20.74;69.73;100545.19;3555837;40;20327;-58
2021/06/19 02:47:49;;;;;;;13.43;12.23;;;;;;;20.62;70.15;100554.09;3556576;40;20104;-55
2021/06/19 02:50:20;;;;;;;13.27;11.98;;;;;;;20.52;70.58;100550.81;3555807;40;20059;-57
2021/06/19 02:52:47;;;;;;;13.45;11.75;;;;;;;20.52;70.19;100549.91;3556688;40;20456;-56
2021/06/19 02:55:17;;;;;;;14.52;13.00;;;;;;;20.51;70.52;100558.63;3557947;40;20083;-54
2021/06/19 02:57:45;;;;;;;13.88;12.43;;;;;;;20.49;70.42;100550.84;3556582;40;20074;-52
2021/06/19 03:00:14;;;;;;;14.40;12.38;;;;;;;20.43;70.52;100545.72;3558577;40;20431;-52
2021/06/19 03:02:42;;;;;;;15.45;12.55;;;;;;;20.43;70.38;100548.34;3553790;40;20080;-58
2021/06/19 03:05:13;;;;;;;15.18;13.10;;;;;;;20.40;70.96;100547.50;3553126;40;20117;-56
2021/06/19 03:07:40;;;;;;;13.38;11.98;;;;;;;20.49;69.83;100540.44;3551944;40;20097;-56
2021/06/19 03:10:10;;;;;;;14.52;13.02;;;;;;;20.45;71.01;100543.94;3553657;40;20095;-55
2021/06/19 03:12:38;;;;;;;16.92;12.93;;;;;;;20.45;70.71;100543.94;3554115;40;20068;-53
2021/06/19 03:15:07;;;;;;;13.63;12.30;;;;;;;20.43;70.72;100548.34;3552542;40;20048;-53
2021/06/19 03:17:35;;;;;;;14.85;13.43;;;;;;;20.54;70.59;100545.56;3549659;40;20545;-51
2021/06/19 03:20:08;;;;;;;14.05;12.68;;;;;;;20.48;70.73;100543.09;3552696;40;20057;-55
2021/06/19 03:22:59;;;;;;;14.85;13.45;;;;;;;20.46;71.55;100540.44;3554126;40;20093;-58
2021/06/19 03:25:29;;;;;;;17.52;14.00;;;;;;;20.46;71.66;100548.25;3551304;40;20086;-54
2021/06/19 03:27:59;;;;;;;17.50;13.63;;;;;;;20.58;71.84;100560.25;3553269;40;20062;-53
2021/06/19 03:30:27;;;;;;;14.15;12.88;;;;;;;21.31;67.82;100565.84;3553432;40;20065;-53
2021/06/19 03:32:55;;;;;;;13.18;11.88;;;;;;;21.11;68.27;100574.84;3554672;40;20109;-52
2021/06/19 03:35:22;;;;;;;15.88;13.35;;;;;;;20.61;71.15;100560.16;3551814;40;20106;-54
2021/06/19 03:37:51;;;;;;;14.77;12.65;;;;;;;20.46;70.94;100555.19;3552866;40;20101;-55
2021/06/19 03:40:19;;;;;;;13.65;12.38;;;;;;;20.52;71.15;100548.22;3547518;40;20801;-54
2021/06/19 03:42:51;;;;;;;14.68;13.27;;;;;;;20.49;71.64;100550.00;3548991;40;20408;-56
2021/06/19 03:45:20;;;;;;;16.40;12.50;;;;;;;20.57;71.55;100548.97;3547658;40;20073;-53
2021/06/19 03:47:48;;;;;;;15.02;13.07;;;;;;;20.63;70.62;100552.34;3549111;40;20046;-52
2021/06/19 03:50:18;;;;;;;14.00;12.77;;;;;;;20.74;70.96;100560.81;3547851;40;20078;-52
2021/06/19 03:52:50;;;;;;;13.85;12.45;;;;;;;20.93;70.76;100556.97;3549196;40;20844;-52
2021/06/19 03:55:17;;;;;;;13.93;12.63;;;;;;;20.84;70.66;100555.44;3551478;40;20090;-51
2021/06/19 03:57:44;;;;;;;14.80;13.40;;;;;;;20.82;71.41;100562.38;3552549;40;20058;-59
2021/06/19 04:00:14;;;;;;;14.55;13.25;;;;;;;20.88;71.45;100564.00;3553442;40;20418;-51
2021/06/19 04:02:43;;;;;;;14.05;12.50;;;;;;;20.78;72.22;100565.94;3554498;40;20060;-56
2021/06/19 04:05:11;;;;;;;14.32;13.02;;;;;;;20.82;71.58;100575.41;3553396;40;20636;-56
2021/06/19 04:07:38;;;;;;;14.40;13.02;;;;;;;20.95;71.37;100568.22;3553541;40;20046;-55
2021/06/19 04:10:08;;;;;;;14.50;13.20;;;;;;;21.07;70.54;100572.31;3554511;40;20125;-54
2021/06/19 04:12:35;;;;;;;18.27;13.52;;;;;;;21.05;70.49;100574.13;3554988;40;20060;-53
2021/06/19 04:15:04;;;;;;;14.65;13.15;;;;;;;21.07;70.65;100564.50;3552677;40;20058;-56
2021/06/19 04:17:31;;;;;;;13.95;12.75;;;;;;;21.06;70.71;100565.41;3550908;40;20093;-56
2021/06/19 04:19:58;;;;;;;14.80;13.50;;;;;;;21.07;70.10;100564.50;3554450;40;20090;-56
2021/06/19 04:22:25;;;;;;;13.90;12.60;;;;;;;21.17;70.14;100559.97;3554474;40;20092;-56
2021/06/19 04:24:52;;;;;;;15.70;12.98;;;;;;;21.20;69.88;100571.19;3556245;40;20065;-53
2021/06/19 04:27:21;;;;;;;13.88;12.60;;;;;;;21.48;69.27;100568.06;3552526;40;20090;-51
2021/06/19 04:29:48;;;;;;;15.05;13.65;;;;;;;21.37;69.79;100568.28;3554169;40;20093;-56
2021/06/19 04:32:17;;;;;;;14.70;13.23;;;;;;;21.37;70.26;100567.44;3554604;40;20888;-55
2021/06/19 04:34:45;;;;;;;14.65;13.25;;;;;;;21.59;68.71;100561.75;3555592;40;20079;-54
2021/06/19 04:37:14;;;;;;;14.70;13.20;;;;;;;21.64;68.32;100566.00;3553408;40;20121;-55
2021/06/19 04:39:55;;;;;;;13.73;12.38;;;;;;;21.66;68.84;100561.59;3553459;40;20058;-57
2021/06/19 04:42:25;;;;;;;14.18;12.85;;;;;;;21.95;66.97;100558.31;3548691;40;20058;-56
2021/06/19 04:47:25;;;;;;;15.13;12.52;;;;;;;22.07;66.78;100552.81;3559863;40;20733;-54
2021/06/19 04:49:53;;;;;;;13.73;12.05;;;;;;;22.51;65.26;100570.03;3554491;40;20060;-55
2021/06/19 04:52:24;;;;;;;13.82;12.40;;;;;;;22.70;64.06;100567.81;3557018;40;20046;-56
2021/06/19 04:54:54;;;;;;;13.93;12.60;;;;;;;22.85;63.46;100579.59;3549196;40;20053;-55
2021/06/19 04:57:22;;;;;;;14.20;12.75;;;;;;;22.54;64.67;100564.72;3550594;40;20062;-55
2021/06/19 04:59:49;;;;;;;15.05;13.55;;;;;;;22.46;64.77;100568.41;3553219;40;20151;-55
2021/06/19 05:02:16;;;;;;;15.35;13.05;;;;;;;22.80;63.12;100576.25;3555960;40;20085;-54
2021/06/19 05:04:44;;;;;;;13.98;12.55;;;;;;;23.30;61.41;100576.66;3554932;40;20089;-54
2021/06/19 05:07:11;;;;;;;13.05;11.95;;;;;;;23.28;61.40;100581.03;3554286;40;20063;-56
2021/06/19 05:09:39;;;;;;;13.73;12.52;;;;;;;23.34;61.40;100584.34;3553345;40;20042;-58
2021/06/19 05:12:08;;;;;;;13.38;12.07;;;;;;;23.38;62.41;100578.09;3554880;40;20689;-56
2021/06/19 05:14:36;;;;;;;13.77;12.50;;;;;;;23.56;61.85;100568.03;3555407;40;20497;-56
2021/06/19 05:17:03;;;;;;;14.60;12.60;;;;;;;23.45;62.06;100565.72;3549074;40;20042;-55
2021/06/19 05:19:31;;;;;;;13.70;12.32;;;;;;;23.69;61.96;100579.00;3553691;40;20065;-55
2021/06/19 05:21:59;;;;;;;14.15;12.43;;;;;;;23.81;60.85;100573.41;3553159;40;20361;-56
2021/06/19 05:24:27;;;;;;;12.88;11.75;;;;;;;23.92;58.91;100573.06;3556463;40;20050;-56
2021/06/19 05:26:56;;;;;;;18.27;13.35;;;;;;;23.82;60.58;100572.50;3554043;40;20058;-55
2021/06/19 05:29:23;;;;;;;13.35;12.05;;;;;;;23.78;60.02;100571.72;3552641;40;20109;-52
2021/06/19 05:31:50;;;;;;;13.43;12.23;;;;;;;23.59;60.64;100571.41;3558017;40;20089;-56
2021/06/19 05:34:17;;;;;;;13.73;12.10;;;;;;;24.08;59.36;100574.28;3548870;40;20721;-52
2021/06/19 05:36:44;;;;;;;13.48;12.10;;;;;;;24.17;60.13;100567.91;3552527;40;20050;-54
2021/06/19 05:39:12;;;;;;;13.75;12.57;;;;;;;24.14;60.16;100572.34;3554067;40;21038;-56
2021/06/19 05:41:39;;;;;;;12.70;11.50;;;;;;;24.66;57.63;100585.47;3553776;40;20089;-52
2021/06/19 05:44:08;;;;;;;13.13;11.82;;;;;;;24.70;57.30;100584.47;3553529;40;20094;-51
2021/06/19 05:46:38;;;;;;;12.90;11.32;;;;;;;24.57;55.75;100585.78;3555097;40;20064;-58
2021/06/19 05:49:06;;;;;;;11.52;10.40;;;;;;;24.76;55.69;100579.00;3557321;40;20545;-58
2021/06/19 05:51:34;;;;;;;12.85;11.73;;;;;;;24.79;56.35;100586.78;3557026;40;20045;-57
2021/06/19 05:54:02;;;;;;;11.93;10.82;;;;;;;25.06;55.53;100582.31;3559112;40;20072;-51
2021/06/19 05:56:31;;;;;;;12.80;11.60;;;;;;;24.86;57.05;100583.00;3552536;40;20062;-57
2021/06/19 05:58:58;;;;;;;14.23;11.13;;;;;;;24.82;57.02;100586.69;3558450;40;20425;-59
2021/06/19 06:01:30;;;;;;;12.63;11.45;;;;;;;25.28;55.13;100594.66;3552393;40;20058;-56
2021/06/19 06:04:00;;;;;;;12.57;11.35;;;;;;;25.42;54.84;100588.91;3554897;40;20905;-56
2021/06/19 06:06:28;;;;;;;12.70;11.60;;;;;;;25.53;55.22;100592.00;3556504;40;20057;-54
2021/06/19 06:08:55;;;;;;;12.73;11.43;;;;;;;25.77;53.42;100593.69;3557052;40;20102;-53
2021/06/19 06:11:22;;;;;;;13.52;11.45;;;;;;;25.75;53.72;100595.50;3556984;40;20041;-55
2021/06/19 06:13:49;;;;;;;12.10;11.00;;;;;;;25.86;53.38;100603.00;3556445;40;20449;-51
2021/06/19 06:16:16;;;;;;;12.63;11.35;;;;;;;26.00;54.78;100590.16;3551947;40;20100;-56
2021/06/19 06:18:44;;;;;;;11.73;10.75;;;;;;;26.13;54.20;100590.53;3556144;40;20105;-54
2021/06/19 06:21:11;;;;;;;13.13;11.05;;;;;;;26.23;52.86;100591.03;3558281;40;20058;-52
2021/06/19 06:23:38;;;;;;;11.05;10.05;;;;;;;26.29;54.16;100586.34;3557555;40;20089;-52
2021/06/19 06:26:15;;;;;;;13.98;12.52;;;;;;;26.33;53.49;100587.94;3558532;40;20098;-56
2021/06/19 06:28:51;;;;;;;11.63;10.52;;;;;;;26.73;52.24;100578.44;3555835;40;20329;-53
2021/06/19 06:31:21;;;;;;;12.50;11.23;;;;;;;26.67;51.63;100589.22;3552048;40;20049;-55
2021/06/19 06:33:54;;;;;;;11.52;10.35;;;;;;;26.98;52.40;100593.97;3554678;40;20213;-53
2021/06/19 06:36:22;;;;;;;15.80;10.63;;;;;;;27.19;51.44;100596.63;3549253;40;20090;-50
2021/06/19 06:38:53;;;;;;;11.68;10.60;;;;;;;27.08;50.59;100591.78;3549680;40;20054;-57
2021/06/19 06:41:24;;;;;;;11.15;10.05;;;;;;;26.92;50.72;100591.63;3548945;40;20447;-55
2021/06/19 06:43:52;;;;;;;10.73;9.73;;;;;;;27.11;49.71;100599.56;3555409;40;20045;-60
2021/06/19 06:46:23;;;;;;;10.45;9.60;;;;;;;27.34;49.48;100602.03;3554620;40;20082;-62
2021/06/19 06:48:51;;;;;;;10.60;9.60;;;;;;;27.30;48.57;100603.09;3560563;40;20083;-61
2021/06/19 06:51:18;;;;;;;11.50;10.18;;;;;;;27.35;48.12;100600.25;3552304;40;20061;-61
2021/06/19 06:53:48;;;;;;;11.95;9.98;;;;;;;27.46;48.69;100595.34;3549634;40;20050;-59
2021/06/19 06:56:17;;;;;;;10.98;9.90;;;;;;;27.67;47.65;100609.28;3548532;40;20069;-60
2021/06/19 06:58:45;;;;;;;10.77;9.77;;;;;;;27.83;48.58;100604.19;3549206;40;20061;-60
2021/06/19 07:01:13;;;;;;;11.23;9.85;;;;;;;28.04;47.10;100594.41;3548623;40;20105;-60
2021/06/19 07:03:43;;;;;;;11.30;9.40;;;;;;;28.22;46.90;100596.16;3549140;40;20054;-60
2021/06/19 07:06:16;;;;;;;11.65;9.80;;;;;;;28.16;47.06;100601.72;3548099;40;20061;-61
2021/06/19 07:08:45;;;;;;;11.38;10.27;;;;;;;28.52;47.79;100609.63;3548917;40;20050;-58
2021/06/19 07:11:17;;;;;;;11.63;9.90;;;;;;;28.76;46.64;100612.78;3548401;40;20072;-59
2021/06/19 07:13:47;;;;;;;11.00;9.95;;;;;;;28.75;45.97;100603.19;3549065;40;20069;-58
2021/06/19 07:16:14;;;;;;;11.48;10.15;;;;;;;28.93;44.59;100609.25;3548486;40;20060;-59
2021/06/19 07:18:43;;;;;;;11.13;10.13;;;;;;;29.03;44.82;100607.91;3554079;40;20097;-61
2021/06/19 07:21:10;;;;;;;11.80;10.05;;;;;;;29.02;44.92;100606.16;3553341;40;20463;-62
2021/06/19 07:23:37;;;;;;;11.05;9.93;;;;;;;29.34;45.51;100607.09;3552707;40;20137;-63
2021/06/19 07:26:04;;;;;;;12.02;10.43;;;;;;;29.47;43.91;100603.81;3552997;40;20122;-63
2021/06/19 07:28:31;;;;;;;11.00;9.85;;;;;;;29.90;43.56;100607.59;3553492;40;20058;-63
2021/06/19 07:30:58;;;;;;;10.70;9.52;;;;;;;30.35;40.81;100605.94;3554742;40;20091;-63
2021/06/19 07:33:27;;;;;;;13.80;10.65;;;;;;;30.26;41.38;100612.59;3552238;40;20078;-62
2021/06/19 07:35:55;;;;;;;12.13;10.55;;;;;;;30.40;41.38;100619.72;3551281;40;20068;-63
2021/06/19 07:38:23;;;;;;;12.13;9.70;;;;;;;30.37;40.06;100615.50;3552713;40;20042;-63
2021/06/19 07:40:50;;;;;;;10.15;9.18;;;;;;;30.67;39.95;100614.63;3554609;40;20081;-62
2021/06/19 07:43:19;;;;;;;11.52;9.10;;;;;;;30.91;39.79;100614.97;3547638;40;20058;-61
2021/06/19 07:45:46;;;;;;;10.05;9.02;;;;;;;30.95;40.45;100608.53;3548830;40;20054;-63
2021/06/19 07:48:13;;;;;;;10.07;9.15;;;;;;;31.34;38.25;100610.59;3547845;40;20440;-62
2021/06/19 07:50:41;;;;;;;11.25;9.35;;;;;;;31.69;39.44;100610.13;3548475;40;20579;-61
2021/06/19 07:53:08;;;;;;;9.95;9.05;;;;;;;32.02;37.32;100595.69;3549439;40;20089;-64
2021/06/19 07:55:36;;;;;;;10.60;9.50;;;;;;;31.99;38.40;100602.06;3548803;40;20062;-63
2021/06/19 07:58:04;;;;;;;11.77;9.77;;;;;;;32.44;37.47;100598.16;3549247;40;20065;-63
2021/06/19 08:00:31;;;;;;;11.45;10.43;;;;;;;32.43;37.28;100601.78;3548462;40;20049;-61
2021/06/19 08:02:59;;;;;;;11.60;9.65;;;;;;;32.89;36.89;100601.28;3549746;40;20155;-59
2021/06/19 08:05:27;;;;;;;10.30;9.30;;;;;;;33.06;35.96;100601.97;3548351;40;20452;-60
2021/06/19 08:07:54;;;;;;;10.60;9.50;;;;;;;33.26;35.79;100611.19;3546383;40;20057;-60
2021/06/19 08:10:21;;;;;;;10.15;9.35;;;;;;;33.16;35.83;100611.81;3547758;40;20062;-61
2021/06/19 08:12:52;;;;;;;10.93;9.73;;;;;;;33.10;36.00;100608.75;3551797;40;20090;-61
2021/06/19 08:15:21;;;;;;;10.63;9.70;;;;;;;34.11;34.01;100613.00;3553249;40;20046;-60
2021/06/19 08:17:48;;;;;;;10.88;9.98;;;;;;;33.68;35.66;100609.94;3552013;40;20066;-61
2021/06/19 08:20:15;;;;;;;12.82;9.10;;;;;;;34.32;33.33;100609.69;3554769;40;20061;-60
2021/06/19 08:22:44;;;;;;;10.60;9.70;;;;;;;34.68;33.38;100603.41;3554774;40;20148;-61
2021/06/19 08:25:12;;;;;;;11.07;9.98;;;;;;;34.05;33.70;100608.13;3547969;40;20351;-58
2021/06/19 08:27:39;;;;;;;10.48;9.38;;;;;;;34.03;33.90;100609.22;3547547;40;20356;-61
2021/06/19 08:30:07;;;;;;;10.80;9.90;;;;;;;34.18;34.46;100608.06;3548581;40;20359;-60
2021/06/19 08:32:34;;;;;;;12.13;11.02;;;;;;;33.76;34.32;100602.25;3548917;40;20064;-59
2021/06/19 08:35:02;;;;;;;12.48;9.90;;;;;;;33.73;33.13;100610.44;3548316;40;20792;-60
2021/06/19 08:37:29;;;;;;;10.23;9.32;;;;;;;33.83;34.39;100605.31;3548351;40;20065;-60
2021/06/19 08:39:57;;;;;;;14.73;10.38;;;;;;;33.93;34.04;100595.72;3549735;40;20073;-61
2021/06/19 08:42:25;;;;;;;9.85;8.95;;;;;;;33.61;33.86;100598.06;3541544;40;20093;-61
2021/06/19 08:44:56;;;;;;;9.55;8.73;;;;;;;33.24;34.59;100594.53;3555055;40;20054;-61
2021/06/19 08:47:24;;;;;;;9.88;9.00;;;;;;;33.23;34.90;100595.44;3551593;40;20046;-61
2021/06/19 08:49:54;;;;;;;10.60;9.55;;;;;;;33.35;36.41;100594.59;3550085;40;20407;-60
2021/06/19 08:52:22;;;;;;;9.98;9.07;;;;;;;33.50;33.74;100592.66;3556351;40;20424;-60
2021/06/19 08:54:49;;;;;;;12.45;9.10;;;;;;;33.28;34.46;100593.31;3554632;40;20082;-61
2021/06/19 08:57:16;;;;;;;9.60;8.70;;;;;;;33.59;34.79;100594.66;3554198;40;20078;-60
2021/06/19 08:59:49;;;;;;;9.82;8.93;;;;;;;33.44;32.93;100593.97;3553450;40;20093;-60
2021/06/19 09:02:17;;;;;;;8.32;7.63;;;;;;;33.39;32.66;100601.38;3555871;40;20068;-60
2021/06/19 09:05:13;;;;;;;15.10;8.00;;;;;;;33.17;33.79;100583.47;3555292;40;20057;-61
2021/06/19 09:07:41;;;;;;;9.07;8.20;;;;;;;33.13;33.78;100582.84;3547705;40;20576;-60
2021/06/19 09:10:32;;;;;;;8.63;7.93;;;;;;;33.05;33.53;100586.97;3550115;40;20058;-61
2021/06/19 09:13:21;;;;;;;7.85;7.15;;;;;;;33.89;32.58;100592.44;3550128;40;20038;-60
2021/06/19 09:15:55;;;;;;;9.55;7.72;;;;;;;33.76;32.84;100583.66;3548881;40;20463;-61
2021/06/19 09:18:24;;;;;;;8.65;6.93;;;;;;;33.93;32.35;100587.75;3549047;40;20102;-57
2021/06/19 09:20:53;;;;;;;12.57;7.78;;;;;;;33.79;33.53;100590.53;3548883;40;20062;-59
2021/06/19 09:23:34;;;;;;;8.73;7.32;;;;;;;35.03;30.84;100584.72;3548707;40;20253;-61
2021/06/19 09:26:15;;;;;;;9.55;7.70;;;;;;;34.81;30.53;100592.69;3549337;40;20058;-60
2021/06/19 09:29:05;;;;;;;9.85;7.88;;;;;;;34.57;30.78;100588.25;3550546;40;20060;-62
2021/06/19 09:31:36;;;;;;;7.78;7.18;;;;;;;34.87;30.02;100586.88;3554026;40;20061;-60
2021/06/19 09:34:11;;;;;;;8.43;7.45;;;;;;;35.65;30.38;100591.34;3554067;40;20066;-60
2021/06/19 09:36:42;;;;;;;7.95;7.20;;;;;;;35.81;28.04;100586.44;3555402;40;20143;-61
2021/06/19 09:39:11;;;;;;;8.18;7.38;;;;;;;35.85;28.53;100587.06;3553809;40;20077;-60
2021/06/19 09:41:41;;;;;;;8.00;7.25;;;;;;;36.18;27.60;100592.28;3553859;40;20101;-61
2021/06/19 09:44:08;;;;;;;7.97;7.28;;;;;;;36.07;27.18;100586.16;3554416;40;20457;-61
2021/06/19 09:46:35;;;;;;;9.98;6.85;;;;;;;36.20;28.91;100586.84;3555427;40;20396;-61
2021/06/19 09:49:17;;;;;;;8.15;7.50;;;;;;;35.76;28.07;100585.13;3550543;40;20088;-60
2021/06/19 09:51:50;;;;;;;7.93;7.13;;;;;;;35.45;28.85;100582.25;3554250;40;20089;-59
2021/06/19 09:54:19;;;;;;;8.50;6.80;;;;;;;36.11;28.84;100582.25;3553321;40;20061;-60
2021/06/19 09:56:50;;;;;;;6.97;6.15;;;;;;;36.77;26.38;100580.19;3553014;40;20094;-58
2021/06/19 09:59:19;;;;;;;7.65;6.90;;;;;;;36.61;27.28;100585.16;3555466;40;20054;-60
2021/06/19 10:01:46;;;;;;;6.05;5.53;;;;;;;37.16;23.76;100591.06;3554145;40;20058;-61
2021/06/19 10:04:16;;;;;;;7.53;6.70;;;;;;;37.32;25.03;100585.25;3552458;40;20793;-59
2021/06/19 10:06:43;;;;;;;11.77;6.40;;;;;;;37.30;26.29;100585.38;3551067;40;20424;-61
2021/06/19 10:09:11;;;;;;;7.82;6.28;;;;;;;38.37;25.23;100594.44;3552208;40;20317;-61
2021/06/19 10:11:39;;;;;;;8.73;6.57;;;;;;;38.70;21.91;100593.09;3552607;40;20117;-61
2021/06/19 10:14:11;;;;;;;8.18;6.07;;;;;;;39.67;21.89;100584.66;3554354;40;20066;-61
2021/06/19 10:16:41;;;;;;;6.50;6.07;;;;;;;41.62;18.81;100591.50;3554568;40;20139;-59
2021/06/19 10:19:09;;;;;;;6.68;6.07;;;;;;;43.00;17.80;100600.56;3554219;40;20063;-59
2021/06/19 10:21:37;;;;;;;8.00;6.47;;;;;;;42.94;18.16;100599.38;3552981;40;20066;-59
2021/06/19 10:24:07;;;;;;;7.53;5.97;;;;;;;44.27;17.55;100596.66;3554750;40;20085;-60
2021/06/19 10:26:37;;;;;;;5.63;5.22;;;;;;;43.83;18.06;100592.78;3545471;40;20057;-59
2021/06/19 10:29:06;;;;;;;6.30;5.80;;;;;;;46.05;16.04;100592.75;3554287;40;20053;-58
2021/06/19 10:31:46;;;;;;;6.68;6.18;;;;;;;46.50;14.84;100603.28;3552682;40;20098;-60
2021/06/19 10:34:50;;;;;;;5.75;5.25;;;;;;;47.69;13.71;100599.31;3554420;40;20061;-61
2021/06/19 10:37:29;;;;;;;6.40;5.85;;;;;;;48.00;13.35;100608.75;3539122;40;20076;-59
2021/06/19 10:39:56;;;;;;;6.65;5.88;;;;;;;46.95;15.01;100600.06;3550100;40;20058;-59
2021/06/19 10:42:27;;;;;;;6.55;6.05;;;;;;;46.76;13.79;100599.94;3550103;40;20053;-60
2021/06/19 10:45:05;;;;;;;6.25;5.65;;;;;;;46.52;15.86;100596.66;3546408;40;20356;-60
2021/06/19 10:47:54;;;;;;;6.25;5.75;;;;;;;47.69;13.54;100590.34;3548529;40;20069;-60
2021/06/19 10:50:22;;;;;;;6.32;5.85;;;;;;;46.98;15.13;100596.13;3548380;40;20108;-59
2021/06/19 10:53:08;;;;;;;6.95;6.00;;;;;;;47.16;13.64;100584.72;3553309;40;20408;-58
2021/06/19 10:55:51;;;;;;;6.72;6.07;;;;;;;46.28;14.70;100589.00;3552547;40;20422;-59
2021/06/19 10:58:34;;;;;;;5.60;5.20;;;;;;;48.19;14.57;100588.09;3552419;40;20094;-59
2021/06/19 11:01:03;;;;;;;7.00;5.70;;;;;;;48.95;13.99;100588.38;3552827;40;20053;-60
2021/06/19 11:03:48;;;;;;;6.78;5.80;;;;;;;49.88;12.93;100589.78;3555461;40;20060;-60
2021/06/19 11:06:28;;;;;;;7.25;5.88;;;;;;;50.58;12.10;100595.88;3553221;40;20415;-60
2021/06/19 11:09:15;;;;;;;6.65;6.18;;;;;;;49.22;12.79;100587.44;3556131;40;20037;-58
2021/06/19 11:12:02;;;;;;;7.13;6.53;;;;;;;47.45;14.77;100575.44;3552835;40;20093;-57
2021/06/19 11:14:41;;;;;;;6.72;6.13;;;;;;;49.18;13.01;100587.03;3550066;40;20479;-60
2021/06/19 11:17:29;;;;;;;6.93;6.32;;;;;;;49.22;13.70;100584.72;3554322;40;20097;-58
2021/06/19 11:20:05;;;;;;;6.55;6.00;;;;;;;49.27;12.66;100576.72;3553588;40;20103;-58
2021/06/19 11:22:40;;;;;;;6.82;6.10;;;;;;;49.65;12.09;100579.47;3547995;40;20058;-59
2021/06/19 11:25:28;;;;;;;7.68;5.88;;;;;;;47.72;13.89;100570.09;3549048;40;20434;-59
2021/06/19 11:27:55;;;;;;;7.28;6.78;;;;;;;47.35;13.55;100570.41;3553458;40;20053;-56
2021/06/19 11:30:35;;;;;;;7.20;6.50;;;;;;;49.60;12.35;100576.53;3552567;40;20089;-59